Aviation Digital Data Service (ADDS)

Output produced by METARs form (0023 UTC 19 August 2019)
found at http://www.aviationweather.gov/metar/data/
 
METAR text: SBGR 190000Z 18003KT CAVOK 20/14 Q1019
Conditions at: SBGR (GUARULHOS (CIV/M, BR) observed 0000 UTC 19 August 2019
Temperature: 20.0°C (68°F)
Dewpoint: 14.0°C (57°F) [RH = 68%]
Pressure (altimeter): 30.09 inches Hg (1019.0 mb)
Winds: from the S (180 degrees) at 3 MPH (3 knots; 1.5 m/s)
Visibility: 6 or more miles (10+ km)
Ceiling: ceiling and visibility are OK
Clouds: unknown
Weather: no significant weather observed at this time

METAR text: SBGR 182300Z 00000KT CAVOK 19/14 Q1018
Conditions at: SBGR (GUARULHOS (CIV/M, BR) observed 2300 UTC 18 August 2019
Temperature: 19.0°C (66°F)
Dewpoint: 14.0°C (57°F) [RH = 73%]
Pressure (altimeter): 30.06 inches Hg (1018.0 mb)
Winds: calm
Visibility: 6 or more miles (10+ km)
Ceiling: ceiling and visibility are OK
Clouds: unknown
Weather: no significant weather observed at this time

METAR text: SBGR 182200Z 00000KT CAVOK 20/14 Q1017
Conditions at: SBGR (GUARULHOS (CIV/M, BR) observed 2200 UTC 18 August 2019
Temperature: 20.0°C (68°F)
Dewpoint: 14.0°C (57°F) [RH = 68%]
Pressure (altimeter): 30.03 inches Hg (1017.0 mb)
Winds: calm
Visibility: 6 or more miles (10+ km)
Ceiling: ceiling and visibility are OK
Clouds: unknown
Weather: no significant weather observed at this time

METAR text: SBGR 182100Z 00000KT CAVOK 23/14 Q1017
Conditions at: SBGR (GUARULHOS (CIV/M, BR) observed 2100 UTC 18 August 2019
Temperature: 23.0°C (73°F)
Dewpoint: 14.0°C (57°F) [RH = 57%]
Pressure (altimeter): 30.03 inches Hg (1017.0 mb)
Winds: calm
Visibility: 6 or more miles (10+ km)
Ceiling: ceiling and visibility are OK
Clouds: unknown
Weather: no significant weather observed at this time

METAR text: SBGR 182000Z 29005KT CAVOK 27/12 Q1016
Conditions at: SBGR (GUARULHOS (CIV/M, BR) observed 2000 UTC 18 August 2019
Temperature: 27.0°C (81°F)
Dewpoint: 12.0°C (54°F) [RH = 39%]
Pressure (altimeter): 30.00 inches Hg (1016.0 mb)
Winds: from the WNW (290 degrees) at 6 MPH (5 knots; 2.6 m/s)
Visibility: 6 or more miles (10+ km)
Ceiling: ceiling and visibility are OK
Clouds: unknown
Weather: no significant weather observed at this time

METAR text: SBGR 181900Z 31007KT CAVOK 28/12 Q1016
Conditions at: SBGR (GUARULHOS (CIV/M, BR) observed 1900 UTC 18 August 2019
Temperature: 28.0°C (82°F)
Dewpoint: 12.0°C (54°F) [RH = 37%]
Pressure (altimeter): 30.00 inches Hg (1016.0 mb)
Winds: from the NW (310 degrees) at 8 MPH (7 knots; 3.6 m/s)
Visibility: 6 or more miles (10+ km)
Ceiling: ceiling and visibility are OK
Clouds: unknown
Weather: no significant weather observed at this time

METAR text: SBGR 181800Z 30009KT CAVOK 29/12 Q1017
Conditions at: SBGR (GUARULHOS (CIV/M, BR) observed 1800 UTC 18 August 2019
Temperature: 29.0°C (84°F)
Dewpoint: 12.0°C (54°F) [RH = 35%]
Pressure (altimeter): 30.03 inches Hg (1017.0 mb)
Winds: from the WNW (300 degrees) at 10 MPH (9 knots; 4.6 m/s)
Visibility: 6 or more miles (10+ km)
Ceiling: ceiling and visibility are OK
Clouds: unknown
Weather: no significant weather observed at this time

METAR text: SBGR 181700Z 29012KT CAVOK 28/12 Q1017
Conditions at: SBGR (GUARULHOS (CIV/M, BR) observed 1700 UTC 18 August 2019
Temperature: 28.0°C (82°F)
Dewpoint: 12.0°C (54°F) [RH = 37%]
Pressure (altimeter): 30.03 inches Hg (1017.0 mb)
Winds: from the WNW (290 degrees) at 14 MPH (12 knots; 6.2 m/s)
Visibility: 6 or more miles (10+ km)
Ceiling: ceiling and visibility are OK
Clouds: unknown
Weather: no significant weather observed at this time

METAR text: SBGR 181600Z 30009KT CAVOK 28/12 Q1018
Conditions at: SBGR (GUARULHOS (CIV/M, BR) observed 1600 UTC 18 August 2019
Temperature: 28.0°C (82°F)
Dewpoint: 12.0°C (54°F) [RH = 37%]
Pressure (altimeter): 30.06 inches Hg (1018.0 mb)
Winds: from the WNW (300 degrees) at 10 MPH (9 knots; 4.6 m/s)
Visibility: 6 or more miles (10+ km)
Ceiling: ceiling and visibility are OK
Clouds: unknown
Weather: no significant weather observed at this time

METAR text: SBGR 181500Z 32010KT CAVOK 27/12 Q1018
Conditions at: SBGR (GUARULHOS (CIV/M, BR) observed 1500 UTC 18 August 2019
Temperature: 27.0°C (81°F)
Dewpoint: 12.0°C (54°F) [RH = 39%]
Pressure (altimeter): 30.06 inches Hg (1018.0 mb)
Winds: from the NW (320 degrees) at 12 MPH (10 knots; 5.1 m/s)
Visibility: 6 or more miles (10+ km)
Ceiling: ceiling and visibility are OK
Clouds: unknown
Weather: no significant weather observed at this time

METAR text: SBGR 181400Z 31009KT CAVOK 26/11 Q1019
Conditions at: SBGR (GUARULHOS (CIV/M, BR) observed 1400 UTC 18 August 2019
Temperature: 26.0°C (79°F)
Dewpoint: 11.0°C (52°F) [RH = 39%]
Pressure (altimeter): 30.09 inches Hg (1019.0 mb)
Winds: from the NW (310 degrees) at 10 MPH (9 knots; 4.6 m/s)
Visibility: 6 or more miles (10+ km)
Ceiling: ceiling and visibility are OK
Clouds: unknown
Weather: no significant weather observed at this time

METAR text: SBGR 181300Z 05003KT 8000 NSC 23/13 Q1020
Conditions at: SBGR (GUARULHOS (CIV/M, BR) observed 1300 UTC 18 August 2019
Temperature: 23.0°C (73°F)
Dewpoint: 13.0°C (55°F) [RH = 53%]
Pressure (altimeter): 30.12 inches Hg (1020.0 mb)
Winds: from the NE (50 degrees) at 3 MPH (3 knots; 1.5 m/s)
Visibility: 5 miles ( 8 km)
Ceiling: at least 12,000 feet AGL
Clouds: sky clear below 12,000 feet AGL
Weather: no significant weather observed at this time

METAR text: SBGR 181200Z 07004KT 8000 NSC 20/11 Q1019
Conditions at: SBGR (GUARULHOS (CIV/M, BR) observed 1200 UTC 18 August 2019
Temperature: 20.0°C (68°F)
Dewpoint: 11.0°C (52°F) [RH = 56%]
Pressure (altimeter): 30.09 inches Hg (1019.0 mb)
Winds: from the ENE (70 degrees) at 5 MPH (4 knots; 2.1 m/s)
Visibility: 5 miles ( 8 km)
Ceiling: at least 12,000 feet AGL
Clouds: sky clear below 12,000 feet AGL
Weather: no significant weather observed at this time

METAR text: SBGR 181100Z 00000KT 9000 NSC 16/13 Q1019
Conditions at: SBGR (GUARULHOS (CIV/M, BR) observed 1100 UTC 18 August 2019
Temperature: 16.0°C (61°F)
Dewpoint: 13.0°C (55°F) [RH = 82%]
Pressure (altimeter): 30.09 inches Hg (1019.0 mb)
Winds: calm
Visibility: 6 miles ( 9 km)
Ceiling: at least 12,000 feet AGL
Clouds: sky clear below 12,000 feet AGL
Weather: no significant weather observed at this time

METAR text: SBGR 181000Z 00000KT CAVOK 12/11 Q1018
Conditions at: SBGR (GUARULHOS (CIV/M, BR) observed 1000 UTC 18 August 2019
Temperature: 12.0°C (54°F)
Dewpoint: 11.0°C (52°F) [RH = 94%]
Pressure (altimeter): 30.06 inches Hg (1018.0 mb)
Winds: calm
Visibility: 6 or more miles (10+ km)
Ceiling: ceiling and visibility are OK
Clouds: unknown
Weather: no significant weather observed at this time

METAR text: SBGR 180900Z 00000KT CAVOK 13/11 Q1018
Conditions at: SBGR (GUARULHOS (CIV/M, BR) observed 0900 UTC 18 August 2019
Temperature: 13.0°C (55°F)
Dewpoint: 11.0°C (52°F) [RH = 88%]
Pressure (altimeter): 30.06 inches Hg (1018.0 mb)
Winds: calm
Visibility: 6 or more miles (10+ km)
Ceiling: ceiling and visibility are OK
Clouds: unknown
Weather: no significant weather observed at this time

METAR text: SBGR 180800Z 02005KT CAVOK 19/10 Q1017
Conditions at: SBGR (GUARULHOS (CIV/M, BR) observed 0800 UTC 18 August 2019
Temperature: 19.0°C (66°F)
Dewpoint: 10.0°C (50°F) [RH = 56%]
Pressure (altimeter): 30.03 inches Hg (1017.0 mb)
Winds: from the NNE (20 degrees) at 6 MPH (5 knots; 2.6 m/s)
Visibility: 6 or more miles (10+ km)
Ceiling: ceiling and visibility are OK
Clouds: unknown
Weather: no significant weather observed at this time

METAR text: SBGR 180700Z 06002KT CAVOK 13/11 Q1018
Conditions at: SBGR (GUARULHOS (CIV/M, BR) observed 0700 UTC 18 August 2019
Temperature: 13.0°C (55°F)
Dewpoint: 11.0°C (52°F) [RH = 88%]
Pressure (altimeter): 30.06 inches Hg (1018.0 mb)
Winds: from the ENE (60 degrees) at 2 MPH (2 knots; 1.0 m/s)
Visibility: 6 or more miles (10+ km)
Ceiling: ceiling and visibility are OK
Clouds: unknown
Weather: no significant weather observed at this time

METAR text: SBGR 180600Z 17003KT CAVOK 13/11 Q1019
Conditions at: SBGR (GUARULHOS (CIV/M, BR) observed 0600 UTC 18 August 2019
Temperature: 13.0°C (55°F)
Dewpoint: 11.0°C (52°F) [RH = 88%]
Pressure (altimeter): 30.09 inches Hg (1019.0 mb)
Winds: from the S (170 degrees) at 3 MPH (3 knots; 1.5 m/s)
Visibility: 6 or more miles (10+ km)
Ceiling: ceiling and visibility are OK
Clouds: unknown
Weather: no significant weather observed at this time

METAR text: SBGR 180500Z 00000KT CAVOK 13/11 Q1018
Conditions at: SBGR (GUARULHOS (CIV/M, BR) observed 0500 UTC 18 August 2019
Temperature: 13.0°C (55°F)
Dewpoint: 11.0°C (52°F) [RH = 88%]
Pressure (altimeter): 30.06 inches Hg (1018.0 mb)
Winds: calm
Visibility: 6 or more miles (10+ km)
Ceiling: ceiling and visibility are OK
Clouds: unknown
Weather: no significant weather observed at this time

METAR text: SBGR 180400Z 00000KT CAVOK 15/11 Q1019
Conditions at: SBGR (GUARULHOS (CIV/M, BR) observed 0400 UTC 18 August 2019
Temperature: 15.0°C (59°F)
Dewpoint: 11.0°C (52°F) [RH = 77%]
Pressure (altimeter): 30.09 inches Hg (1019.0 mb)
Winds: calm
Visibility: 6 or more miles (10+ km)
Ceiling: ceiling and visibility are OK
Clouds: unknown
Weather: no significant weather observed at this time

METAR text: SBGR 180300Z 10002KT CAVOK 16/11 Q1019
Conditions at: SBGR (GUARULHOS (CIV/M, BR) observed 0300 UTC 18 August 2019
Temperature: 16.0°C (61°F)
Dewpoint: 11.0°C (52°F) [RH = 72%]
Pressure (altimeter): 30.09 inches Hg (1019.0 mb)
Winds: from the E (100 degrees) at 2 MPH (2 knots; 1.0 m/s)
Visibility: 6 or more miles (10+ km)
Ceiling: ceiling and visibility are OK
Clouds: unknown
Weather: no significant weather observed at this time

METAR text: SBGR 180200Z 07003KT CAVOK 16/11 Q1019
Conditions at: SBGR (GUARULHOS (CIV/M, BR) observed 0200 UTC 18 August 2019
Temperature: 16.0°C (61°F)
Dewpoint: 11.0°C (52°F) [RH = 72%]
Pressure (altimeter): 30.09 inches Hg (1019.0 mb)
Winds: from the ENE (70 degrees) at 3 MPH (3 knots; 1.5 m/s)
Visibility: 6 or more miles (10+ km)
Ceiling: ceiling and visibility are OK
Clouds: unknown
Weather: no significant weather observed at this time

METAR text: SBGR 180100Z 08004KT CAVOK 17/11 Q1019
Conditions at: SBGR (GUARULHOS (CIV/M, BR) observed 0100 UTC 18 August 2019
Temperature: 17.0°C (63°F)
Dewpoint: 11.0°C (52°F) [RH = 68%]
Pressure (altimeter): 30.09 inches Hg (1019.0 mb)
Winds: from the E (80 degrees) at 5 MPH (4 knots; 2.1 m/s)
Visibility: 6 or more miles (10+ km)
Ceiling: ceiling and visibility are OK
Clouds: unknown
Weather: no significant weather observed at this time

METAR text: SBGR 180000Z 00000KT CAVOK 17/12 Q1019
Conditions at: SBGR (GUARULHOS (CIV/M, BR) observed 0000 UTC 18 August 2019
Temperature: 17.0°C (63°F)
Dewpoint: 12.0°C (54°F) [RH = 72%]
Pressure (altimeter): 30.09 inches Hg (1019.0 mb)
Winds: calm
Visibility: 6 or more miles (10+ km)
Ceiling: ceiling and visibility are OK
Clouds: unknown
Weather: no significant weather observed at this time

METAR text: SBGR 172300Z 31003KT CAVOK 18/10 Q1019
Conditions at: SBGR (GUARULHOS (CIV/M, BR) observed 2300 UTC 17 August 2019
Temperature: 18.0°C (64°F)
Dewpoint: 10.0°C (50°F) [RH = 59%]
Pressure (altimeter): 30.09 inches Hg (1019.0 mb)
Winds: from the NW (310 degrees) at 3 MPH (3 knots; 1.5 m/s)
Visibility: 6 or more miles (10+ km)
Ceiling: ceiling and visibility are OK
Clouds: unknown
Weather: no significant weather observed at this time

METAR text: SBGR 172200Z 00000KT CAVOK 19/12 Q1018
Conditions at: SBGR (GUARULHOS (CIV/M, BR) observed 2200 UTC 17 August 2019
Temperature: 19.0°C (66°F)
Dewpoint: 12.0°C (54°F) [RH = 64%]
Pressure (altimeter): 30.06 inches Hg (1018.0 mb)
Winds: calm
Visibility: 6 or more miles (10+ km)
Ceiling: ceiling and visibility are OK
Clouds: unknown
Weather: no significant weather observed at this time

METAR text: SBGR 172100Z 31003KT CAVOK 22/12 Q1018
Conditions at: SBGR (GUARULHOS (CIV/M, BR) observed 2100 UTC 17 August 2019
Temperature: 22.0°C (72°F)
Dewpoint: 12.0°C (54°F) [RH = 53%]
Pressure (altimeter): 30.06 inches Hg (1018.0 mb)
Winds: from the NW (310 degrees) at 3 MPH (3 knots; 1.5 m/s)
Visibility: 6 or more miles (10+ km)
Ceiling: ceiling and visibility are OK
Clouds: unknown
Weather: no significant weather observed at this time

METAR text: SBGR 172000Z 34008KT CAVOK 26/11 Q1018
Conditions at: SBGR (GUARULHOS (CIV/M, BR) observed 2000 UTC 17 August 2019
Temperature: 26.0°C (79°F)
Dewpoint: 11.0°C (52°F) [RH = 39%]
Pressure (altimeter): 30.06 inches Hg (1018.0 mb)
Winds: from the NNW (340 degrees) at 9 MPH (8 knots; 4.1 m/s)
Visibility: 6 or more miles (10+ km)
Ceiling: ceiling and visibility are OK
Clouds: unknown
Weather: no significant weather observed at this time

METAR text: SBGR 171900Z 34011KT CAVOK 27/11 Q1017
Conditions at: SBGR (GUARULHOS (CIV/M, BR) observed 1900 UTC 17 August 2019
Temperature: 27.0°C (81°F)
Dewpoint: 11.0°C (52°F) [RH = 37%]
Pressure (altimeter): 30.03 inches Hg (1017.0 mb)
Winds: from the NNW (340 degrees) at 13 MPH (11 knots; 5.7 m/s)
Visibility: 6 or more miles (10+ km)
Ceiling: ceiling and visibility are OK
Clouds: unknown
Weather: no significant weather observed at this time

METAR text: SBGR 171800Z 31009G20KT CAVOK 27/11 Q1018
Conditions at: SBGR (GUARULHOS (CIV/M, BR) observed 1800 UTC 17 August 2019
Temperature: 27.0°C (81°F)
Dewpoint: 11.0°C (52°F) [RH = 37%]
Pressure (altimeter): 30.06 inches Hg (1018.0 mb)
Winds: from the NW (310 degrees) at 10 MPH (9 knots; 4.6 m/s)
gusting to 23 MPH (20 knots; 10.3 m/s)
Visibility: 6 or more miles (10+ km)
Ceiling: ceiling and visibility are OK
Clouds: unknown
Weather: no significant weather observed at this time

METAR text: SBGR 171700Z 32009KT CAVOK 27/12 Q1018
Conditions at: SBGR (GUARULHOS (CIV/M, BR) observed 1700 UTC 17 August 2019
Temperature: 27.0°C (81°F)
Dewpoint: 12.0°C (54°F) [RH = 39%]
Pressure (altimeter): 30.06 inches Hg (1018.0 mb)
Winds: from the NW (320 degrees) at 10 MPH (9 knots; 4.6 m/s)
Visibility: 6 or more miles (10+ km)
Ceiling: ceiling and visibility are OK
Clouds: unknown
Weather: no significant weather observed at this time

METAR text: SBGR 171600Z 31010KT CAVOK 26/11 Q1020
Conditions at: SBGR (GUARULHOS (CIV/M, BR) observed 1600 UTC 17 August 2019
Temperature: 26.0°C (79°F)
Dewpoint: 11.0°C (52°F) [RH = 39%]
Pressure (altimeter): 30.12 inches Hg (1020.0 mb)
Winds: from the NW (310 degrees) at 12 MPH (10 knots; 5.1 m/s)
Visibility: 6 or more miles (10+ km)
Ceiling: ceiling and visibility are OK
Clouds: unknown
Weather: no significant weather observed at this time

METAR text: SBGR 171500Z 31011KT CAVOK 25/11 Q1021
Conditions at: SBGR (GUARULHOS (CIV/M, BR) observed 1500 UTC 17 August 2019
Temperature: 25.0°C (77°F)
Dewpoint: 11.0°C (52°F) [RH = 41%]
Pressure (altimeter): 30.15 inches Hg (1021.0 mb)
Winds: from the NW (310 degrees) at 13 MPH (11 knots; 5.7 m/s)
Visibility: 6 or more miles (10+ km)
Ceiling: ceiling and visibility are OK
Clouds: unknown
Weather: no significant weather observed at this time

METAR text: SBGR 171400Z 06007KT CAVOK 22/13 Q1022
Conditions at: SBGR (GUARULHOS (CIV/M, BR) observed 1400 UTC 17 August 2019
Temperature: 22.0°C (72°F)
Dewpoint: 13.0°C (55°F) [RH = 57%]
Pressure (altimeter): 30.18 inches Hg (1022.0 mb)
Winds: from the ENE (60 degrees) at 8 MPH (7 knots; 3.6 m/s)
Visibility: 6 or more miles (10+ km)
Ceiling: ceiling and visibility are OK
Clouds: unknown
Weather: no significant weather observed at this time

METAR text: SBGR 171300Z 06008KT CAVOK 19/12 Q1023
Conditions at: SBGR (GUARULHOS (CIV/M, BR) observed 1300 UTC 17 August 2019
Temperature: 19.0°C (66°F)
Dewpoint: 12.0°C (54°F) [RH = 64%]
Pressure (altimeter): 30.21 inches Hg (1023.0 mb)
Winds: from the ENE (60 degrees) at 9 MPH (8 knots; 4.1 m/s)
Visibility: 6 or more miles (10+ km)
Ceiling: ceiling and visibility are OK
Clouds: unknown
Weather: no significant weather observed at this time

Forecast for: SBGR (GUARULHOS (CIV/M, BR)
Text: TAF SBGR 182203Z 1900/2006 00000KT CAVOK TX19/1900Z TN13/2005Z
Forecast period: 0000 to 0400 UTC 19 August 2019
Forecast type: FROM: standard forecast or significant change
Winds: calm
Visibility: 6 or more miles 10+ km)
Ceiling: unknown
Clouds: missing
Weather: no significant weather forecast for this period
Text: BECMG 1904/1906 17007KT 8000 BKN011
Forecast period: 0400 to 1200 UTC 19 August 2019
Forecast type: BECOMING: Conditions expected to become as follows by 0600 UTC 19 August 2019
Winds: from the S (170 degrees) at 8 MPH (7 knots; 3.6 m/s)
Visibility: 5 miles (8 km)
Ceiling: 1100 feet AGL
Clouds: broken clouds at 1100 feet AGL
Weather: no significant weather forecast for this period
Text: PROB30 1907/1912 5000 DZ BR BKN006
Forecast period: 0700 to 1200 UTC 19 August 2019
Forecast type: PROBABLE: 30 percent likelihood of the following during this time
Visibility: 3 miles (5 km)
Ceiling: 600 feet AGL
Clouds: broken clouds at 600 feet AGL
Weather: DZ BR  (moderate drizzle, mist)
Text: BECMG 1912/1914 16008KT
Forecast period: 1200 to 1800 UTC 19 August 2019
Forecast type: BECOMING: Conditions expected to become as follows by 1400 UTC 19 August 2019
Winds: from the SSE (160 degrees) at 9 MPH (8 knots; 4.1 m/s)
Visibility: 5 miles (8 km)
Ceiling: 1100 feet AGL
Clouds: broken clouds at 1100 feet AGL
Weather: no significant weather forecast for this period
Text: BECMG 1918/1920 OVC011
Forecast period: 1800 UTC 19 August 2019 to 0600 UTC 20 August 2019
Forecast type: BECOMING: Conditions expected to become as follows by 2000 UTC 19 August 2019
Winds: from the SSE (160 degrees) at 9 MPH (8 knots; 4.1 m/s)
Visibility: 5 miles (8 km)
Ceiling: 1100 feet AGL
Clouds: overcast cloud deck at 1100 feet AGL
Weather: no significant weather forecast for this period
Text: PROB40 1921/1921 5000 DZ BR OVC008 RMK PGM
Forecast period: 2100 to 2100 UTC 19 August 2019
Forecast type: PROBABLE: 40 percent likelihood of the following during this time
Visibility: 3 miles (5 km)
Ceiling: 800 feet AGL
Clouds: overcast cloud deck at 800 feet AGL
Weather: DZ BR  (moderate drizzle, mist)